Latest Weather Observations for Coonawarra

IDS60801

Issued at 1:01 pm CST Saturday 29 April 2017 (issued every 30 minutes, with the page automatically refreshed every 10 minutes)

About weather observations | Map of weather stations | Latest weather observations for SA | Other Formats
Station Details ID: 026091 Name: COONAWARRA Lat: -37.29 Lon: 140.83 Height: 57.0 m
Data from the previous 72 hours. | See also: Recent months at Coonawarra
Date/Time
CST
Temp
°C
App
Temp
°C
Dew
Point
°C
Rel
Hum
%
Delta-T
°C
Wind Press
QNH
hPa
Press
MSL
hPa
Rain since
9am
mm
Dir  Spd
km/h
Gust
km/h
Spd
kts
Gust
kts
29/01:00pm 16.9 15.4 14.3 85 1.5 SSW 15 26 8 14 1023.9 1023.8 1.2
29/12:30pm 17.3 16.1 14.1 81 1.8 WSW 13 20 7 11 1024.1 1024.0 1.2
29/12:00pm 15.4 14.3 14.3 93 0.6 SW 13 19 7 10 1024.6 1024.5 1.2
29/11:30am 17.0 16.0 14.7 86 1.3 WSW 13 19 7 10 1024.7 1024.6 1.2
29/11:00am 15.6 14.9 14.4 93 0.7 W 11 17 6 9 1024.9 1024.8 1.2
29/10:30am 14.9 14.2 14.2 96 0.4 SW 11 19 6 10 1025.1 1025.0 1.0
29/10:00am 15.5 15.2 14.4 93 0.6 WSW 9 13 5 7 1025.1 1025.0 0.8
29/09:30am 15.0 14.7 14.5 97 0.3 WSW 9 13 5 7 1025.2 1025.1 0.8
29/09:00am 15.0 13.9 14.3 96 0.4 W 13 17 7 9 1025.0 1024.9 0.8
29/08:30am 14.2 14.1 14.0 99 0.1 WNW 7 11 4 6 1024.9 1024.8 0.8
29/08:00am 13.9 13.7 13.5 97 0.2 NW 7 9 4 5 1024.7 1024.6 0.8
29/07:30am 13.5 13.1 13.1 97 0.2 NW 7 9 4 5 1024.5 1024.4 0.8
29/07:00am 13.1 12.7 12.9 99 0.1 WNW 7 11 4 6 1024.1 1024.0 0.8
29/06:30am 13.1 12.3 12.9 99 0.1 WNW 9 13 5 7 1023.9 1023.8 0.8
29/06:00am 13.0 12.2 12.8 99 0.1 NW 9 11 5 6 1023.8 1023.7 0.8
29/05:30am 12.8 11.9 12.6 99 0.1 NNW 9 11 5 6 1023.8 1023.7 0.8
29/05:00am 13.1 12.6 12.7 97 0.2 NW 7 11 4 6 1023.6 1023.5 0.8
29/04:30am 13.0 12.1 12.6 97 0.2 NW 9 13 5 7 1023.7 1023.6 0.8
29/04:00am 12.9 11.7 12.7 99 0.1 NW 11 15 6 8 1023.4 1023.4 0.6
29/03:30am 13.0 11.7 12.6 97 0.2 WNW 11 15 6 8 1023.4 1023.4 0.6
29/03:00am 12.5 11.4 12.1 97 0.2 NW 9 11 5 6 1023.6 1023.5 0.6
29/02:30am 12.6 11.6 12.2 97 0.2 NW 9 13 5 7 1023.8 1023.7 0.6
29/02:00am 12.9 12.4 12.5 97 0.2 NW 7 9 4 5 1024.1 1024.0 0.6
29/01:30am 13.2 12.3 12.6 96 0.3 WNW 9 13 5 7 1024.2 1024.1 0.6
29/01:00am 12.9 11.9 12.3 96 0.3 NW 9 11 5 6 1024.3 1024.2 0.4
29/12:30am 12.9 11.9 12.3 96 0.3 NW 9 13 5 7 1024.4 1024.3 0.4
29/12:00am 13.2 12.2 12.3 94 0.5 WNW 9 11 5 6 1024.5 1024.4 0.4
 
Date/Time
CST
Temp
°C
App
Temp
°C
Dew
Point
°C
Rel
Hum
%
Delta-T
°C
Wind Press
QNH
hPa
Press
MSL
hPa
Rain since
9am
mm
Dir  Spd
km/h
Gust
km/h
Spd
kts
Gust
kts
28/11:30pm 13.1 12.1 12.2 94 0.5 NW 9 11 5 6 1024.7 1024.6 0.4
28/11:00pm 13.2 12.2 12.3 94 0.5 NW 9 13 5 7 1024.8 1024.7 0.4
28/10:30pm 13.4 12.4 12.3 93 0.6 NW 9 13 5 7 1024.7 1024.6 0.4
28/10:00pm 13.8 11.6 12.1 89 0.9 W 15 24 8 13 1025.1 1025.0 0.4
28/09:30pm 13.6 12.6 12.3 92 0.7 NW 9 13 5 7 1025.0 1024.9 0.4
28/09:00pm 13.7 12.8 12.6 93 0.6 NNW 9 11 5 6 1025.0 1024.9 0.4
28/08:30pm 13.7 12.3 12.2 91 0.8 NNW 11 13 6 7 1024.9 1024.8 0.4
28/08:00pm 13.6 12.6 12.3 92 0.7 NNW 9 13 5 7 1025.1 1025.0 0.4
28/07:30pm 13.3 12.7 12.2 93 0.6 WNW 7 9 4 5 1025.2 1025.1 0.4
28/07:00pm 12.8 11.2 11.5 92 0.7 WNW 11 11 6 6 1025.1 1025.0 0.4
28/06:30pm 13.9 12.8 11.8 87 1.1 WNW 9 13 5 7 1025.1 1025.0 0.4
28/06:00pm 15.1 14.1 12.3 83 1.5 W 9 13 5 7 1024.9 1024.8 0.4
28/05:30pm 15.4 14.4 12.3 82 1.7 W 9 13 5 7 1024.7 1024.6 0.4
28/05:00pm 15.8 14.3 11.9 77 2.1 W 11 17 6 9 1024.6 1024.5 0.4
28/04:30pm 16.2 13.2 11.8 75 2.4 W 19 26 10 14 1024.7 1024.6 0.4
28/04:00pm 16.2 14.3 13.0 81 1.8 WSW 15 22 8 12 1024.6 1024.5 0.4
28/03:30pm 16.4 14.0 12.8 79 2.0 WSW 17 28 9 15 1024.6 1024.5 0.4
28/03:00pm 16.3 14.7 13.8 85 1.4 WSW 15 22 8 12 1024.5 1024.4 0.4
28/02:30pm 17.1 14.4 13.0 77 2.3 WSW 19 26 10 14 1024.5 1024.4 0.2
28/02:00pm 16.1 12.7 13.6 85 1.4 W 24 37 13 20 1024.8 1024.7 0.2
28/01:30pm 17.3 14.2 13.4 78 2.2 WSW 22 32 12 17 1024.8 1024.7 0.2
28/01:00pm 17.6 14.6 13.7 78 2.2 WSW 22 33 12 18 1024.8 1024.7 0.2
28/12:30pm 15.9 12.2 13.8 87 1.2 WSW 26 43 14 23 1025.1 1025.0 0.2
28/12:00pm 16.7 13.4 14.1 85 1.5 WSW 24 41 13 22 1025.4 1025.3 0.2
28/11:30am 16.9 14.0 13.9 82 1.7 WSW 22 33 12 18 1025.6 1025.5 0.2
28/11:00am 16.2 14.1 14.8 91 0.8 WSW 19 30 10 16 1026.0 1025.9 0.2
28/10:30am 16.5 14.2 14.6 88 1.1 W 20 30 11 16 1026.0 1025.9 0.2
28/10:00am 15.6 13.8 14.4 93 0.7 WSW 17 24 9 13 1026.0 1025.9 0.2
28/09:30am 15.4 13.2 14.3 93 0.6 W 19 26 10 14 1026.1 1026.0 0.2
28/09:00am 14.9 13.9 14.5 97 0.2 WNW 13 19 7 10 1026.2 1026.1 1.8
28/08:30am 14.1 12.8 13.7 97 0.2 WNW 13 15 7 8 1025.9 1025.8 1.8
28/08:00am 13.6 13.0 13.4 99 0.1 NW 9 11 5 6 1025.7 1025.6 1.8
28/07:30am 12.9 12.0 12.7 99 0.1 NW 9 11 5 6 1025.3 1025.2 1.4
28/07:00am 12.5 11.4 12.1 97 0.2 NNW 9 13 5 7 1025.0 1024.9 1.4
28/06:30am 12.2 11.5 12.0 99 0.1 NNW 7 11 4 6 1024.8 1024.7 1.4
28/06:00am 12.1 11.0 11.9 99 0.1 NW 9 13 5 7 1024.8 1024.7 1.4
28/05:30am 12.1 11.3 11.7 97 0.2 NNW 7 11 4 6 1024.7 1024.6 1.4
28/05:00am 11.7 10.5 11.5 99 0.1 NNW 9 11 5 6 1024.6 1024.5 1.4
28/04:30am 11.7 10.8 11.3 97 0.2 NW 7 11 4 6 1024.4 1024.3 1.4
28/04:00am 11.5 10.2 11.3 99 0.1 NNW 9 11 5 6 1024.2 1024.1 1.4
28/03:30am 11.4 10.1 11.2 99 0.1 NNW 9 13 5 7 1024.2 1024.1 1.4
28/03:00am 11.1 9.7 10.9 99 0.1 NNW 9 13 5 7 1024.2 1024.1 1.4
28/02:30am 11.2 9.8 11.0 99 0.1 NNW 9 13 5 7 1024.5 1024.4 1.4
28/02:00am 11.2 9.4 11.0 99 0.1 NNW 11 17 6 9 1024.7 1024.6 1.2
28/01:30am 11.0 9.1 10.6 97 0.2 NNW 11 15 6 8 1024.8 1024.7 1.2
28/01:00am 10.8 8.9 10.6 99 0.1 N 11 15 6 8 1024.8 1024.7 1.2
28/12:30am 11.1 9.7 10.9 99 0.1 NNW 9 13 5 7 1024.9 1024.8 1.2
28/12:00am 10.9 9.4 10.5 97 0.2 NNW 9 11 5 6 1025.0 1024.9 1.2
 
Date/Time
CST
Temp
°C
App
Temp
°C
Dew
Point
°C
Rel
Hum
%
Delta-T
°C
Wind Press
QNH
hPa
Press
MSL
hPa
Rain since
9am
mm
Dir  Spd
km/h
Gust
km/h
Spd
kts
Gust
kts
27/11:30pm 10.7 8.8 10.5 99 0.1 NNW 11 13 6 7 1025.2 1025.1 1.2
27/11:00pm 10.5 8.1 10.1 97 0.2 NNW 13 15 7 8 1025.3 1025.2 1.2
27/10:30pm 10.6 9.4 10.2 97 0.2 NNW 7 11 4 6 1025.5 1025.4 1.2
27/10:00pm 9.1 7.1 8.5 96 0.3 N 9 9 5 5 1025.4 1025.3 1.0
27/09:30pm 9.2 7.6 8.6 96 0.3 N 7 9 4 5 1025.4 1025.3 1.0
27/09:00pm 9.7 9.5 8.9 95 0.4 CALM 0 0 0 0 1025.4 1025.3 1.0
27/08:30pm 10.6 9.3 9.8 95 0.4 WNW 7 9 4 5 1025.2 1025.1 1.0
27/08:00pm 11.8 9.6 10.8 94 0.5 WNW 13 15 7 8 1025.0 1024.9 1.0
27/07:30pm 12.2 10.4 10.9 92 0.7 WNW 11 15 6 8 1025.1 1025.0 1.0
27/07:00pm 12.4 10.9 10.5 88 1.0 W 9 11 5 6 1025.0 1024.9 1.0
27/06:30pm 11.9 10.3 10.3 90 0.8 W 9 13 5 7 1025.0 1024.9 1.0
27/06:00pm 12.1 10.0 9.9 86 1.1 W 11 13 6 7 1024.8 1024.7 1.0
27/05:30pm 12.3 11.1 10.4 88 1.0 WSW 7 9 4 5 1024.7 1024.6 1.0
27/05:00pm 13.7 12.0 10.0 78 1.9 SW 9 15 5 8 1024.6 1024.5 1.0
27/04:30pm 14.0 11.2 10.1 77 2.0 SW 15 22 8 12 1024.8 1024.7 1.0
27/04:00pm 14.9 12.3 9.2 68 2.9 WSW 13 17 7 9 1024.8 1024.7 1.0
27/03:30pm 14.4 12.8 10.2 76 2.2 SSW 9 15 5 8 1025.0 1024.9 1.0
27/03:00pm 14.4 11.0 9.1 70 2.7 SW 17 22 9 12 1024.9 1024.8 1.0
27/02:30pm 13.4 9.8 9.9 79 1.8 SW 19 30 10 16 1025.1 1025.0 1.0
27/02:00pm 14.4 11.5 9.5 72 2.5 SW 15 26 8 14 1025.0 1024.9 1.0
27/01:30pm 12.8 10.7 11.3 91 0.8 SW 13 17 7 9 1025.1 1025.0 1.0
27/01:00pm 13.1 10.8 10.6 85 1.3 SW 13 19 7 10 1025.5 1025.4 1.0
27/12:30pm 13.5 11.0 9.8 78 1.9 WSW 13 20 7 11 1025.8 1025.7 0.4
27/12:00pm 13.7 11.7 10.0 78 1.9 W 11 17 6 9 1026.1 1026.0 0.0
27/11:30am 12.6 9.8 9.9 83 1.4 WSW 15 24 8 13 1026.5 1026.4 0.0
27/11:00am 12.3 10.6 9.9 85 1.2 W 9 13 5 7 1026.6 1026.6 0.0
27/10:30am 11.5 8.6 9.5 87 1.0 WSW 15 20 8 11 1026.7 1026.7 0.0
27/10:00am 12.3 10.0 9.1 81 1.6 WNW 11 17 6 9 1026.6 1026.6 0.0
27/09:30am 11.3 9.5 9.5 89 0.9 WNW 9 13 5 7 1026.6 1026.6 0.0
27/09:00am 10.0 8.0 8.8 92 0.6 NNW 9 13 5 7 1026.6 1026.6 0.2
27/08:30am 8.4 7.9 7.8 96 0.3 CALM 0 7 0 4 1026.7 1026.7 0.2
27/08:00am 6.9 4.8 6.5 97 0.2 N 7 9 4 5 1026.4 1026.3 0.2
27/07:30am 6.3 4.3 6.1 99 0.1 SSE 6 7 3 4 1026.3 1026.2 0.2
27/07:00am 5.0 2.6 4.5 97 0.2 NNW 6 7 3 4 1025.6 1025.5 0.2
27/06:30am 4.9 2.6 4.7 99 0.1 NNW 6 9 3 5 1025.5 1025.4 0.2
27/06:00am 5.2 2.7 4.7 97 0.2 NNW 7 9 4 5 1025.4 1025.3 0.2
27/05:30am 4.8 3.2 4.6 99 0.1 NE 2 9 1 5 1025.2 1025.1 0.2
27/05:00am 5.5 4.4 5.3 99 0.1 CALM 0 0 0 0 1025.0 1024.9 0.2
27/04:30am 5.3 4.1 4.8 97 0.2 CALM 0 0 0 0 1024.7 1024.6 0.2
27/04:00am 5.1 3.9 4.6 97 0.2 CALM 0 0 0 0 1024.5 1024.4 0.2
27/03:30am 4.5 1.9 4.0 97 0.2 E 7 9 4 5 1024.6 1024.5 0.2
27/03:00am 4.1 1.4 3.9 99 0.1 NW 7 9 4 5 1024.4 1024.3 0.2
27/02:30am 3.4 0.6 2.9 97 0.2 WNW 7 7 4 4 1024.6 1024.5 0.2
27/02:00am 3.9 0.3 3.2 95 0.3 WNW 11 15 6 8 1024.6 1024.5 0.2
27/01:30am 3.3 0.7 3.1 99 0.1 W 6 7 3 4 1024.3 1024.2 0.2
27/01:00am 3.6 0.8 3.4 99 0.1 WSW 7 7 4 4 1024.4 1024.3 0.2
27/12:30am 4.3 2.9 3.8 97 0.2 CALM 0 0 0 0 1024.3 1024.2 0.2
27/12:00am 4.3 2.9 3.8 97 0.2 CALM 0 0 0 0 1024.3 1024.2 0.2
 
Date/Time
CST
Temp
°C
App
Temp
°C
Dew
Point
°C
Rel
Hum
%
Delta-T
°C
Wind Press
QNH
hPa
Press
MSL
hPa
Rain since
9am
mm
Dir  Spd
km/h
Gust
km/h
Spd
kts
Gust
kts
26/11:30pm 4.9 2.2 3.9 93 0.4 W 7 9 4 5 1024.1 1024.0 0.2
26/11:00pm 5.9 3.5 5.4 97 0.2 WSW 7 9 4 5 1024.1 1024.0 0.2
26/10:30pm 7.0 4.4 6.3 95 0.3 WSW 9 11 5 6 1024.0 1023.9 0.2
26/10:00pm 7.5 5.0 6.6 94 0.4 WSW 9 13 5 7 1024.0 1023.9 0.2
26/09:30pm 6.1 5.1 5.4 95 0.3 CALM 0 6 0 3 1023.7 1023.6 0.2
26/09:00pm 7.0 4.4 6.1 94 0.4 W 9 13 5 7 1023.4 1023.4 0.2
26/08:30pm 6.6 3.5 5.7 94 0.4 W 11 11 6 6 1023.1 1023.1 0.2
26/08:00pm 7.0 4.8 6.1 94 0.4 W 7 9 4 5 1022.9 1022.9 0.2
26/07:30pm 7.2 5.0 6.1 93 0.5 SW 7 9 4 5 1022.9 1022.9 0.2
26/07:00pm 8.3 5.7 6.3 87 0.9 SSW 9 11 5 6 1022.7 1022.7 0.2
26/06:30pm 9.6 6.0 6.8 83 1.3 SSW 15 20 8 11 1022.4 1022.4 0.2
26/06:00pm 9.9 6.9 5.8 75 1.9 SW 11 17 6 9 1021.8 1021.8 0.2
26/05:30pm 10.3 7.3 6.2 76 1.9 SW 11 17 6 9 1021.6 1021.6 0.2
26/05:00pm 10.7 6.9 5.9 72 2.2 SW 15 24 8 13 1021.4 1021.4 0.2
26/04:30pm 11.0 6.9 6.1 72 2.3 SSW 17 24 9 13 1021.1 1021.1 0.2
26/04:00pm 11.0 7.2 5.6 69 2.5 SW 15 22 8 12 1020.9 1020.9 0.2
26/03:30pm 10.9 6.1 4.7 65 2.8 SW 19 28 10 15 1020.6 1020.6 0.2
26/03:00pm 11.0 5.8 5.6 69 2.5 SSW 22 35 12 19 1020.4 1020.4 0.2
26/02:30pm 11.6 6.4 5.5 66 2.8 SW 22 28 12 15 1020.1 1020.1 0.0
26/02:00pm 11.1 6.0 5.9 70 2.4 SSW 22 32 12 17 1020.0 1020.0 0.0
26/01:30pm 11.4 6.5 4.3 61 3.2 S 19 32 10 17 1019.7 1019.7 0.0
26/01:14pm 12.7 6.0 3.8 54 4.0 SW 28 46 15 25 1019.8 1019.8 0.0

Other Formats:

Comma delimited format used in spreadsheet applications
http://www.bom.gov.au/fwo/IDS60801/IDS60801.94817.axf

JavaScript Object Notation format (JSON) in row-major order
http://www.bom.gov.au/fwo/IDS60801/IDS60801.94817.json